createdAt,value
2018-08-17T00:02:20.050Z,8.80
2018-08-17T00:04:49.081Z,8.63
2018-08-17T00:07:17.711Z,8.93
2018-08-17T00:09:46.250Z,8.67
2018-08-17T00:12:14.754Z,8.97
2018-08-17T00:14:44.161Z,10.13
2018-08-17T00:17:12.784Z,9.20
2018-08-17T00:19:41.191Z,12.90
2018-08-17T00:22:09.621Z,9.30
2018-08-17T00:24:38.021Z,11.77
2018-08-17T00:27:06.686Z,9.53
2018-08-17T00:29:36.669Z,9.17
2018-08-17T00:32:05.238Z,9.30
2018-08-17T00:34:35.322Z,9.00
2018-08-17T00:37:06.184Z,9.20
2018-08-17T00:39:34.973Z,9.73
2018-08-17T00:42:06.780Z,9.77
2018-08-17T00:44:36.328Z,9.20
2018-08-17T00:47:09.163Z,9.60
2018-08-17T00:49:38.625Z,10.83
2018-08-17T00:52:07.635Z,8.90
2018-08-17T00:54:36.533Z,10.27
2018-08-17T00:57:05.001Z,10.37
2018-08-17T00:59:33.495Z,12.67
2018-08-17T01:02:03.352Z,9.77
2018-08-17T01:04:35.058Z,10.70
2018-08-17T01:07:03.590Z,10.47
2018-08-17T01:09:32.045Z,12.23
2018-08-17T01:12:00.616Z,10.23
2018-08-17T01:14:29.055Z,10.10
2018-08-17T01:16:57.500Z,10.20
2018-08-17T01:19:25.970Z,11.60
2018-08-17T01:21:54.357Z,10.00
2018-08-17T01:24:22.955Z,10.73
2018-08-17T01:26:51.377Z,9.63
2018-08-17T01:29:19.959Z,10.67
2018-08-17T01:31:48.398Z,10.03
2018-08-17T01:34:16.843Z,10.63
2018-08-17T01:36:45.210Z,11.20
2018-08-17T01:39:13.663Z,10.40
2018-08-17T01:41:42.061Z,11.03
2018-08-17T01:44:10.472Z,10.33
2018-08-17T01:46:38.881Z,11.20
2018-08-17T01:49:07.319Z,11.83
2018-08-17T01:51:35.748Z,10.93
2018-08-17T01:54:07.131Z,11.13
2018-08-17T01:56:35.713Z,11.07
2018-08-17T01:59:04.174Z,11.33
2018-08-17T02:01:32.657Z,11.27
2018-08-17T02:04:01.071Z,11.00
2018-08-17T02:06:29.511Z,12.80
2018-08-17T02:08:57.895Z,13.73
2018-08-17T02:11:26.445Z,12.40
2018-08-17T02:13:54.857Z,12.67
2018-08-17T02:16:23.270Z,11.73
2018-08-17T02:18:51.641Z,11.30
2018-08-17T02:21:20.043Z,10.67
2018-08-17T02:23:48.416Z,13.70
2018-08-17T02:26:16.815Z,10.70
2018-08-17T02:28:45.197Z,11.13
2018-08-17T02:31:13.634Z,11.90
2018-08-17T02:33:42.212Z,11.27
2018-08-17T02:36:10.629Z,11.87
2018-08-17T02:38:39.110Z,11.60
2018-08-17T02:41:07.558Z,11.47
2018-08-17T02:43:35.944Z,11.53
2018-08-17T02:46:04.406Z,10.17
2018-08-17T02:48:32.848Z,10.13
2018-08-17T02:51:01.229Z,11.00
2018-08-17T02:53:29.762Z,10.53
2018-08-17T02:55:58.184Z,14.10
2018-08-17T02:58:26.565Z,12.50
2018-08-17T03:00:54.956Z,11.70
2018-08-17T03:03:23.395Z,13.07
2018-08-17T03:05:51.762Z,11.83
2018-08-17T03:08:20.267Z,11.83
2018-08-17T03:10:48.804Z,13.20
2018-08-17T03:13:17.307Z,13.13
2018-08-17T03:15:46.482Z,12.30
2018-08-17T03:18:14.903Z,12.20
2018-08-17T03:20:43.319Z,12.07
2018-08-17T03:23:11.778Z,10.63
2018-08-17T03:25:40.273Z,11.07
2018-08-17T03:28:08.669Z,11.70
2018-08-17T03:30:37.139Z,11.20
2018-08-17T03:33:05.556Z,12.87
2018-08-17T03:35:34.052Z,12.03
2018-08-17T03:38:02.540Z,11.60
2018-08-17T03:40:30.971Z,11.87
2018-08-17T03:42:59.334Z,12.70
2018-08-17T03:45:27.756Z,13.27
2018-08-17T03:47:56.238Z,12.13
2018-08-17T03:50:24.745Z,11.77
2018-08-17T03:52:53.189Z,11.33
2018-08-17T03:55:21.597Z,11.33
2018-08-17T03:57:49.986Z,12.47
2018-08-17T04:00:18.460Z,10.87
2018-08-17T04:02:46.844Z,12.03
2018-08-17T04:05:15.311Z,11.70
2018-08-17T04:07:43.738Z,14.57
2018-08-17T04:10:12.222Z,11.73
2018-08-17T04:12:40.676Z,10.63
2018-08-17T04:15:09.728Z,11.50
2018-08-17T04:17:38.522Z,12.03
2018-08-17T04:20:07.274Z,11.97
2018-08-17T04:22:35.676Z,12.47
2018-08-17T04:25:04.221Z,10.70
2018-08-17T04:27:32.644Z,11.50
2018-08-17T04:30:01.163Z,11.23
2018-08-17T04:32:29.724Z,13.43
2018-08-17T04:34:58.288Z,10.93
2018-08-17T04:37:26.824Z,10.50
2018-08-17T04:39:55.210Z,10.63
2018-08-17T04:42:23.641Z,10.43
2018-08-17T04:44:52.192Z,11.03
2018-08-17T04:47:20.700Z,13.63
2018-08-17T04:49:49.059Z,12.17
2018-08-17T04:52:17.567Z,10.13
2018-08-17T04:54:45.960Z,13.27
2018-08-17T04:57:14.391Z,11.33
2018-08-17T04:59:42.796Z,11.63
2018-08-17T05:02:11.282Z,10.23
2018-08-17T05:04:39.690Z,9.83
2018-08-17T05:07:08.815Z,9.67
2018-08-17T05:09:37.192Z,10.20
2018-08-17T05:12:05.819Z,9.63
2018-08-17T05:14:34.257Z,9.37
2018-08-17T05:17:02.657Z,10.47
2018-08-17T05:19:31.037Z,9.20
2018-08-17T05:21:59.531Z,10.50
2018-08-17T05:24:27.954Z,9.67
2018-08-17T05:26:56.327Z,9.67
2018-08-17T05:29:24.836Z,12.90
2018-08-17T05:31:53.336Z,10.83
2018-08-17T05:34:21.770Z,9.43
2018-08-17T05:36:50.124Z,9.47
2018-08-17T05:39:18.581Z,9.47
2018-08-17T05:41:47.163Z,11.47
2018-08-17T05:44:15.641Z,10.17
2018-08-17T05:46:44.127Z,13.80
2018-08-17T05:49:12.591Z,14.20
2018-08-17T05:51:41.189Z,10.10
2018-08-17T05:54:09.785Z,10.80
2018-08-17T05:56:38.229Z,10.10
2018-08-17T05:59:06.624Z,10.17
2018-08-17T06:01:35.115Z,12.40
2018-08-17T06:04:03.549Z,10.13
2018-08-17T06:06:32.054Z,10.03
2018-08-17T06:09:00.565Z,10.03
2018-08-17T06:11:36.033Z,9.70
2018-08-17T06:14:04.765Z,9.30
2018-08-17T06:16:33.304Z,9.57
2018-08-17T06:19:01.821Z,9.80
2018-08-17T06:21:30.390Z,9.87
2018-08-17T06:26:35.631Z,10.33
2018-08-17T06:29:04.071Z,14.57
2018-08-17T06:31:32.570Z,10.47
2018-08-17T06:34:01.042Z,12.50
2018-08-17T06:36:29.465Z,12.47
2018-08-17T06:38:58.053Z,10.03
2018-08-17T06:41:27.637Z,18.77
2018-08-17T06:43:56.077Z,13.80
2018-08-17T06:46:24.570Z,14.63
2018-08-17T06:48:53.064Z,9.17
2018-08-17T06:51:21.652Z,13.03
2018-08-17T06:53:50.137Z,19.07
2018-08-17T06:56:18.616Z,11.57
2018-08-17T06:58:47.119Z,12.73
2018-08-17T07:01:15.671Z,15.03
2018-08-17T07:03:44.057Z,20.43
2018-08-17T07:06:12.479Z,8.83
2018-08-17T07:08:40.961Z,16.50
2018-08-17T07:11:09.341Z,15.90
2018-08-17T07:13:37.738Z,9.50
2018-08-17T07:16:06.377Z,11.80
2018-08-17T07:18:34.761Z,10.13
2018-08-17T07:21:03.342Z,20.63
2018-08-17T07:23:31.930Z,8.03
2018-08-17T07:26:00.310Z,10.47
2018-08-17T07:28:28.755Z,10.73
2018-08-17T07:30:57.276Z,12.30
2018-08-17T07:33:25.734Z,8.37
2018-08-17T07:35:54.285Z,12.13
2018-08-17T07:38:22.622Z,11.40
2018-08-17T07:40:51.037Z,7.33
2018-08-17T07:43:19.777Z,10.13
2018-08-17T07:45:48.308Z,11.97
2018-08-17T07:48:16.981Z,7.80
2018-08-17T07:50:45.313Z,11.97
2018-08-17T07:53:13.768Z,8.83
2018-08-17T07:55:42.161Z,9.60
2018-08-17T07:58:10.618Z,7.63
2018-08-17T08:00:39.076Z,11.70
2018-08-17T08:03:07.599Z,7.30
2018-08-17T08:05:36.083Z,7.03
2018-08-17T08:08:05.389Z,10.07
2018-08-17T08:10:33.818Z,8.67
2018-08-17T08:13:02.463Z,7.10
2018-08-17T08:15:30.860Z,6.03
2018-08-17T08:17:59.318Z,6.10
2018-08-17T08:20:32.269Z,7.97
2018-08-17T08:23:11.890Z,8.47
2018-08-17T08:25:41.103Z,6.73
2018-08-17T08:28:09.614Z,8.77
2018-08-17T08:30:38.431Z,7.13
2018-08-17T08:33:07.057Z,6.13
2018-08-17T08:35:35.910Z,8.90
2018-08-17T08:38:05.023Z,6.00
2018-08-17T08:40:33.436Z,6.63
2018-08-17T08:43:02.008Z,6.23
2018-08-17T08:45:30.450Z,6.53
2018-08-17T08:47:58.969Z,9.03
2018-08-17T08:50:27.530Z,6.77
2018-08-17T08:52:55.980Z,6.47
2018-08-17T08:55:24.465Z,5.00
2018-08-17T08:57:52.942Z,5.97
2018-08-17T09:00:21.381Z,6.80
2018-08-17T09:02:49.841Z,6.30
2018-08-17T09:05:18.312Z,6.37
2018-08-17T09:07:46.908Z,4.50
2018-08-17T09:10:15.425Z,4.43
2018-08-17T09:12:43.933Z,4.30
2018-08-17T09:15:12.892Z,6.73
2018-08-17T09:17:42.495Z,8.40
2018-08-17T09:20:13.266Z,4.67
2018-08-17T09:22:41.850Z,8.67
2018-08-17T09:25:10.370Z,6.00
2018-08-17T09:27:38.894Z,4.53
2018-08-17T09:30:09.986Z,5.33
2018-08-17T09:32:38.471Z,5.03
2018-08-17T09:35:09.278Z,4.40
2018-08-17T09:37:37.749Z,3.77
2018-08-17T09:40:07.005Z,7.33
2018-08-17T09:42:35.500Z,4.93
2018-08-17T09:45:04.063Z,5.90
2018-08-17T09:47:32.493Z,5.23
2018-08-17T09:50:00.944Z,3.67
2018-08-17T09:52:29.332Z,6.50
2018-08-17T09:54:57.751Z,3.50
2018-08-17T09:57:26.299Z,3.20
2018-08-17T09:59:54.732Z,3.33
2018-08-17T10:02:28.528Z,3.87
2018-08-17T10:05:02.550Z,5.50
2018-08-17T10:07:36.664Z,7.40
2018-08-17T10:10:11.184Z,3.40
2018-08-17T10:12:39.620Z,5.53
2018-08-17T10:15:08.285Z,10.37
2018-08-17T10:17:36.781Z,4.67
2018-08-17T10:20:12.167Z,6.07
2018-08-17T10:22:40.760Z,6.43
2018-08-17T10:25:15.621Z,3.00
2018-08-17T10:27:45.420Z,5.13
2018-08-17T10:30:14.125Z,5.83
2018-08-17T10:33:01.211Z,2.97
2018-08-17T10:35:37.172Z,2.83
2018-08-17T10:38:07.644Z,3.73
2018-08-17T10:40:36.218Z,3.27
2018-08-17T10:43:05.894Z,6.70
2018-08-17T10:45:34.782Z,5.97
2018-08-17T10:48:03.715Z,2.90
2018-08-17T10:50:33.334Z,5.13
2018-08-17T10:53:02.900Z,4.47
2018-08-17T10:55:39.584Z,3.00
2018-08-17T10:58:09.286Z,3.80
2018-08-17T11:00:37.834Z,3.10
2018-08-17T11:03:06.406Z,3.13
2018-08-17T11:05:34.857Z,2.90
2018-08-17T11:08:03.374Z,2.40
2018-08-17T11:10:31.850Z,3.63
2018-08-17T11:13:00.360Z,3.33
2018-08-17T11:15:28.751Z,3.37
2018-08-17T11:17:57.232Z,7.23
2018-08-17T11:20:25.673Z,4.57
2018-08-17T11:22:54.280Z,3.83
2018-08-17T11:25:22.767Z,4.27
2018-08-17T11:27:51.865Z,3.33
2018-08-17T11:30:20.374Z,3.10
2018-08-17T11:32:48.818Z,3.92
2018-08-17T11:35:17.313Z,3.60
2018-08-17T11:37:45.897Z,4.50
2018-08-17T11:40:14.326Z,3.80
2018-08-17T11:42:45.018Z,2.90
2018-08-17T11:45:20.686Z,4.40
2018-08-17T11:47:49.420Z,3.87
2018-08-17T11:50:19.687Z,9.30
2018-08-17T11:52:53.562Z,4.33
2018-08-17T11:55:22.805Z,3.23
2018-08-17T11:57:51.550Z,4.53
2018-08-17T12:00:19.997Z,3.63
2018-08-17T12:02:48.507Z,3.40
2018-08-17T12:05:16.925Z,5.60
2018-08-17T12:07:46.187Z,4.43
2018-08-17T12:10:14.691Z,4.17
2018-08-17T12:12:44.151Z,3.80
2018-08-17T12:15:13.372Z,3.33
2018-08-17T12:17:41.896Z,4.30
2018-08-17T12:20:10.426Z,7.87
2018-08-17T12:22:39.212Z,6.43
2018-08-17T12:25:08.512Z,5.20
2018-08-17T12:27:37.037Z,3.00
2018-08-17T12:30:06.786Z,2.87
2018-08-17T12:32:35.522Z,6.10
2018-08-17T12:35:04.018Z,3.13
2018-08-17T12:37:32.507Z,6.80
2018-08-17T12:40:01.044Z,3.80
2018-08-17T12:42:29.658Z,4.37
2018-08-17T12:45:02.599Z,4.93
2018-08-17T12:47:31.594Z,4.53
2018-08-17T12:50:00.215Z,5.17
2018-08-17T12:52:28.754Z,3.77
2018-08-17T12:54:57.242Z,5.67
2018-08-17T12:57:30.074Z,5.10
2018-08-17T12:59:58.499Z,7.00
2018-08-17T13:02:27.027Z,3.90
2018-08-17T13:04:55.485Z,3.23
2018-08-17T13:07:23.970Z,6.90
2018-08-17T13:09:54.659Z,8.17
2018-08-17T13:12:23.296Z,4.53
2018-08-17T13:14:52.184Z,3.70
2018-08-17T13:17:20.797Z,4.80
2018-08-17T13:19:49.335Z,3.77
2018-08-17T13:22:17.854Z,8.50
2018-08-17T13:24:46.328Z,4.43
2018-08-17T13:27:14.868Z,3.97
2018-08-17T13:29:43.659Z,5.23
2018-08-17T13:32:12.285Z,3.83
2018-08-17T13:34:40.767Z,4.43
2018-08-17T13:37:09.350Z,4.50
2018-08-17T13:39:37.898Z,2.70
2018-08-17T13:42:06.691Z,3.07
2018-08-17T13:44:36.045Z,5.00
2018-08-17T13:47:04.747Z,4.20
2018-08-17T13:49:33.374Z,3.30
2018-08-17T13:52:01.955Z,4.50
2018-08-17T13:54:30.552Z,4.13
2018-08-17T13:56:59.495Z,4.13
2018-08-17T13:59:28.207Z,2.37
2018-08-17T14:01:56.760Z,5.13
2018-08-17T14:04:25.379Z,4.27
2018-08-17T14:06:54.590Z,2.40
2018-08-17T14:09:23.409Z,2.50
2018-08-17T14:11:52.365Z,4.10
2018-08-17T14:14:21.009Z,3.50
2018-08-17T14:16:49.589Z,2.70
2018-08-17T14:19:18.191Z,3.13
2018-08-17T14:21:46.749Z,3.60
2018-08-17T14:24:15.265Z,2.63
2018-08-17T14:26:43.805Z,4.10
2018-08-17T14:29:12.478Z,3.07
2018-08-17T14:31:41.082Z,3.37
2018-08-17T14:34:09.749Z,2.67
2018-08-17T14:36:38.336Z,3.00
2018-08-17T14:39:07.460Z,2.87
2018-08-17T14:41:45.974Z,5.03
2018-08-17T14:44:14.880Z,2.97
2018-08-17T14:46:43.662Z,3.97
2018-08-17T14:49:12.398Z,4.93
2018-08-17T14:51:40.922Z,3.07
2018-08-17T14:54:09.904Z,2.80
2018-08-17T14:56:38.475Z,4.33
2018-08-17T14:59:07.450Z,3.50
2018-08-17T15:01:36.015Z,2.60
2018-08-17T15:04:04.617Z,2.70
2018-08-17T15:06:33.135Z,8.77
2018-08-17T15:09:01.859Z,3.53
2018-08-17T15:11:30.592Z,4.83
2018-08-17T15:13:59.396Z,3.00
2018-08-17T15:16:28.291Z,2.77
2018-08-17T15:18:56.977Z,2.83
2018-08-17T15:21:25.700Z,5.00
2018-08-17T15:23:54.308Z,3.27
2018-08-17T15:26:23.611Z,2.63
2018-08-17T15:28:52.513Z,4.67
2018-08-17T15:31:21.240Z,2.80
2018-08-17T15:33:50.635Z,4.93
2018-08-17T15:36:19.310Z,7.33
2018-08-17T15:38:48.622Z,2.57
2018-08-17T15:41:17.885Z,2.60
2018-08-17T15:43:47.192Z,3.40
2018-08-17T15:46:16.098Z,5.03
2018-08-17T15:48:49.701Z,4.47
2018-08-17T15:51:18.802Z,4.07
2018-08-17T15:53:47.582Z,4.67
2018-08-17T15:56:16.421Z,3.20
2018-08-17T15:58:45.111Z,5.30
2018-08-17T16:01:14.039Z,3.67
2018-08-17T16:03:42.998Z,4.40
2018-08-17T16:06:11.726Z,2.83
2018-08-17T16:08:40.451Z,4.20
2018-08-17T16:11:09.556Z,5.87
2018-08-17T16:13:38.209Z,3.43
2018-08-17T16:16:06.862Z,3.37
2018-08-17T16:18:35.820Z,3.17
2018-08-17T16:21:04.230Z,5.33
2018-08-17T16:23:32.686Z,3.33
2018-08-17T16:26:01.130Z,4.87
2018-08-17T16:28:29.568Z,5.40
2018-08-17T16:30:58.039Z,4.93
2018-08-17T16:33:26.549Z,3.40
2018-08-17T16:35:55.192Z,3.60
2018-08-17T16:38:23.722Z,3.20
2018-08-17T16:40:53.363Z,4.17
2018-08-17T16:43:26.024Z,2.90
2018-08-17T16:45:54.582Z,3.17
2018-08-17T16:48:23.106Z,2.77
2018-08-17T16:50:51.615Z,3.27
2018-08-17T16:53:20.042Z,2.80
2018-08-17T16:55:48.572Z,4.30
2018-08-17T16:58:16.997Z,3.47
2018-08-17T17:00:45.501Z,4.13
2018-08-17T17:03:13.928Z,3.10
2018-08-17T17:05:42.392Z,2.63
2018-08-17T17:08:10.801Z,2.93
2018-08-17T17:10:39.426Z,5.53
2018-08-17T17:13:07.863Z,4.87
2018-08-17T17:15:36.391Z,4.60
2018-08-17T17:18:08.002Z,4.80
2018-08-17T17:20:37.640Z,7.90
2018-08-17T17:23:08.500Z,3.23
2018-08-17T17:25:37.379Z,5.40
2018-08-17T17:28:06.046Z,4.43
2018-08-17T17:30:44.635Z,4.30
2018-08-17T17:33:13.134Z,4.27
2018-08-17T17:35:42.513Z,3.30
2018-08-17T17:38:11.499Z,4.73
2018-08-17T17:40:40.719Z,3.70
2018-08-17T17:43:09.787Z,3.27
2018-08-17T17:45:39.121Z,5.23
2018-08-17T17:48:07.950Z,3.27
2018-08-17T17:50:36.482Z,3.57
2018-08-17T17:53:05.175Z,3.60
2018-08-17T17:55:56.104Z,5.47
2018-08-17T17:58:24.691Z,3.63
2018-08-17T18:00:59.689Z,4.10
2018-08-17T18:03:31.537Z,7.27
2018-08-17T18:06:02.063Z,3.83
2018-08-17T18:08:30.740Z,3.83
2018-08-17T18:10:59.330Z,4.40
2018-08-17T18:13:27.975Z,4.13
2018-08-17T18:15:56.517Z,5.80
2018-08-17T18:18:25.084Z,3.57
2018-08-17T18:20:53.625Z,7.23
2018-08-17T18:23:22.288Z,5.73
2018-08-17T18:25:50.781Z,5.90
2018-08-17T18:28:19.371Z,5.33
2018-08-17T18:30:48.007Z,6.23
2018-08-17T18:33:16.763Z,4.90
2018-08-17T18:35:45.391Z,5.43
2018-08-17T18:38:13.965Z,10.53
2018-08-17T18:40:42.439Z,5.27
2018-08-17T18:43:10.876Z,5.60
2018-08-17T18:45:40.006Z,8.97
2018-08-17T18:48:08.533Z,9.80
2018-08-17T18:50:36.963Z,7.10
2018-08-17T18:53:05.435Z,8.73
2018-08-17T18:55:33.879Z,9.53
2018-08-17T18:58:02.376Z,7.23
2018-08-17T19:00:30.944Z,10.60
2018-08-17T19:02:59.452Z,5.40
2018-08-17T19:05:28.159Z,6.77
2018-08-17T19:07:56.636Z,6.07
2018-08-17T19:10:25.128Z,6.00
2018-08-17T19:12:53.592Z,7.93
2018-08-17T19:15:22.072Z,6.27
2018-08-17T19:17:50.687Z,8.83
2018-08-17T19:20:19.175Z,7.80
2018-08-17T19:22:47.676Z,6.20
2018-08-17T19:25:16.788Z,10.17
2018-08-17T19:27:45.488Z,6.83
2018-08-17T19:30:22.308Z,7.23
2018-08-17T19:32:51.554Z,4.53
2018-08-17T19:35:19.982Z,5.97
2018-08-17T19:37:49.030Z,7.60
2018-08-17T19:40:17.498Z,10.13
2018-08-17T19:42:46.206Z,4.63
2018-08-17T19:45:14.765Z,5.60
2018-08-17T19:47:43.289Z,5.50
2018-08-17T19:50:11.939Z,9.40
2018-08-17T19:52:40.486Z,11.30
2018-08-17T19:55:09.148Z,6.67
2018-08-17T19:57:37.983Z,5.63
2018-08-17T20:00:09.184Z,8.83
2018-08-17T20:02:37.750Z,5.60
2018-08-17T20:05:06.937Z,9.57
2018-08-17T20:07:35.554Z,5.33
2018-08-17T20:10:04.311Z,5.30
2018-08-17T20:12:32.951Z,7.37
2018-08-17T20:15:02.185Z,9.03
2018-08-17T20:17:31.211Z,8.10
2018-08-17T20:19:59.923Z,7.27
2018-08-17T20:22:28.878Z,7.17
2018-08-17T20:24:57.581Z,8.20
2018-08-17T20:27:26.242Z,7.17
2018-08-17T20:32:59.867Z,7.80
2018-08-17T20:35:28.386Z,8.40
2018-08-17T20:37:56.824Z,10.10
2018-08-17T20:40:25.301Z,7.27
2018-08-17T20:42:54.010Z,9.40
2018-08-17T20:45:25.537Z,8.47
2018-08-17T20:47:54.296Z,7.37
2018-08-17T20:50:22.786Z,8.77
2018-08-17T20:52:58.417Z,7.87
2018-08-17T20:55:27.076Z,6.57
2018-08-17T20:57:56.499Z,7.87
2018-08-17T21:00:26.539Z,9.07
2018-08-17T21:02:55.303Z,7.33
2018-08-17T21:05:23.936Z,6.37
2018-08-17T21:07:54.155Z,6.50
2018-08-17T21:10:22.598Z,13.77
2018-08-17T21:12:51.027Z,8.13
2018-08-17T21:15:19.744Z,6.77
2018-08-17T21:17:48.706Z,5.93
2018-08-17T21:20:17.357Z,6.17
2018-08-17T21:22:45.930Z,6.43
2018-08-17T21:25:14.502Z,6.23
2018-08-17T21:27:43.241Z,13.73
2018-08-17T21:30:12.162Z,6.40
2018-08-17T21:32:41.040Z,6.33
2018-08-17T21:35:09.602Z,8.00
2018-08-17T21:37:38.219Z,6.47
2018-08-17T21:40:14.218Z,10.60
2018-08-17T21:42:42.803Z,9.83
2018-08-17T21:45:11.281Z,7.17
2018-08-17T21:47:39.772Z,7.40
2018-08-17T21:50:13.448Z,9.73
2018-08-17T21:52:42.597Z,6.37
2018-08-17T21:55:11.088Z,8.63
2018-08-17T21:57:41.058Z,6.00
2018-08-17T22:00:13.165Z,7.53
2018-08-17T22:02:41.631Z,10.13
2018-08-17T22:05:14.363Z,6.77
2018-08-17T22:07:42.808Z,6.90
2018-08-17T22:10:11.241Z,9.40
2018-08-17T22:12:39.661Z,6.60
2018-08-17T22:15:08.136Z,9.33
2018-08-17T22:17:39.502Z,6.80
2018-08-17T22:20:09.961Z,7.43
2018-08-17T22:22:38.379Z,7.20
2018-08-17T22:25:13.684Z,7.67
2018-08-17T22:27:42.195Z,8.80
2018-08-17T22:30:17.300Z,7.13
2018-08-17T22:32:45.687Z,9.07
2018-08-17T22:35:14.230Z,7.07
2018-08-17T22:37:43.865Z,7.20
2018-08-17T22:40:12.343Z,6.53
2018-08-17T22:42:40.842Z,6.30
2018-08-17T22:45:09.313Z,6.60
2018-08-17T22:47:37.728Z,8.53
2018-08-17T22:50:06.713Z,6.80
2018-08-17T22:52:35.553Z,6.80
2018-08-17T22:55:08.481Z,7.60
2018-08-17T22:57:36.969Z,6.97
2018-08-17T23:00:19.223Z,9.17
2018-08-17T23:02:49.025Z,6.80
2018-08-17T23:05:21.037Z,9.53
2018-08-17T23:07:49.607Z,10.23
2018-08-17T23:10:19.324Z,7.70
2018-08-17T23:12:48.902Z,9.37
2018-08-17T23:15:17.482Z,7.33
2018-08-17T23:17:53.053Z,6.97
2018-08-17T23:20:26.853Z,7.27
2018-08-17T23:22:56.578Z,8.10
2018-08-17T23:25:25.032Z,11.40
2018-08-17T23:27:53.809Z,7.07
2018-08-17T23:30:22.363Z,7.23
2018-08-17T23:32:50.889Z,7.47
2018-08-17T23:35:19.387Z,7.47
2018-08-17T23:37:47.876Z,7.00
2018-08-17T23:40:16.357Z,10.60
2018-08-17T23:42:44.883Z,7.67
2018-08-17T23:45:16.013Z,9.07
2018-08-17T23:47:44.486Z,10.47
2018-08-17T23:50:14.032Z,9.50
2018-08-17T23:52:43.145Z,9.53
2018-08-17T23:55:13.285Z,7.97
2018-08-17T23:57:41.859Z,9.57
